sensor_id;sensor_type;location;lat;lon;timestamp;P1;durP1;ratioP1;P2;durP2;ratioP2
45077;SDS011;60508;42.622;25.416;2024-02-23T00:01:31;18.60;;;13.02;;
45077;SDS011;60508;42.622;25.416;2024-02-23T00:03:58;17.15;;;11.93;;
45077;SDS011;60508;42.622;25.416;2024-02-23T00:06:44;19.02;;;13.45;;
45077;SDS011;60508;42.622;25.416;2024-02-23T00:09:11;21.35;;;13.55;;
45077;SDS011;60508;42.622;25.416;2024-02-23T00:11:45;24.13;;;15.48;;
45077;SDS011;60508;42.622;25.416;2024-02-23T00:14:21;21.50;;;13.48;;
45077;SDS011;60508;42.622;25.416;2024-02-23T00:16:48;21.25;;;12.93;;
45077;SDS011;60508;42.622;25.416;2024-02-23T00:19:34;18.98;;;13.13;;
45077;SDS011;60508;42.622;25.416;2024-02-23T00:22:01;17.92;;;12.68;;
45077;SDS011;60508;42.622;25.416;2024-02-23T00:24:27;16.92;;;13.20;;
45077;SDS011;60508;42.622;25.416;2024-02-23T00:27:14;18.48;;;12.23;;
45077;SDS011;60508;42.622;25.416;2024-02-23T00:29:40;19.52;;;12.00;;
45077;SDS011;60508;42.622;25.416;2024-02-23T00:32:06;15.95;;;11.38;;
45077;SDS011;60508;42.622;25.416;2024-02-23T00:34:33;19.52;;;11.88;;
45077;SDS011;60508;42.622;25.416;2024-02-23T00:36:59;15.30;;;11.15;;
45077;SDS011;60508;42.622;25.416;2024-02-23T00:39:26;20.73;;;13.38;;
45077;SDS011;60508;42.622;25.416;2024-02-23T00:41:52;19.63;;;12.65;;
45077;SDS011;60508;42.622;25.416;2024-02-23T00:44:18;19.63;;;12.82;;
45077;SDS011;60508;42.622;25.416;2024-02-23T00:46:45;20.17;;;12.35;;
45077;SDS011;60508;42.622;25.416;2024-02-23T00:49:31;23.17;;;13.82;;
45077;SDS011;60508;42.622;25.416;2024-02-23T00:51:58;16.00;;;11.95;;
45077;SDS011;60508;42.622;25.416;2024-02-23T00:54:24;19.98;;;12.93;;
45077;SDS011;60508;42.622;25.416;2024-02-23T00:56:50;18.63;;;12.60;;
45077;SDS011;60508;42.622;25.416;2024-02-23T00:59:17;17.73;;;12.45;;
45077;SDS011;60508;42.622;25.416;2024-02-23T01:01:43;16.13;;;11.38;;
45077;SDS011;60508;42.622;25.416;2024-02-23T01:04:09;15.93;;;10.45;;
45077;SDS011;60508;42.622;25.416;2024-02-23T01:06:57;16.42;;;10.55;;
45077;SDS011;60508;42.622;25.416;2024-02-23T01:09:24;14.63;;;9.65;;
45077;SDS011;60508;42.622;25.416;2024-02-23T01:11:50;14.15;;;10.50;;
45077;SDS011;60508;42.622;25.416;2024-02-23T01:14:17;16.90;;;11.43;;
45077;SDS011;60508;42.622;25.416;2024-02-23T01:16:43;24.70;;;11.65;;
45077;SDS011;60508;42.622;25.416;2024-02-23T01:19:29;15.30;;;10.80;;
45077;SDS011;60508;42.622;25.416;2024-02-23T01:21:56;16.25;;;10.50;;
45077;SDS011;60508;42.622;25.416;2024-02-23T01:24:45;16.27;;;10.45;;
45077;SDS011;60508;42.622;25.416;2024-02-23T01:27:12;13.75;;;9.98;;
45077;SDS011;60508;42.622;25.416;2024-02-23T01:29:38;16.23;;;10.65;;
45077;SDS011;60508;42.622;25.416;2024-02-23T01:32:05;16.10;;;10.68;;
45077;SDS011;60508;42.622;25.416;2024-02-23T01:34:32;16.58;;;10.82;;
45077;SDS011;60508;42.622;25.416;2024-02-23T01:36:59;16.85;;;12.20;;
45077;SDS011;60508;42.622;25.416;2024-02-23T01:39:26;22.50;;;12.43;;
45077;SDS011;60508;42.622;25.416;2024-02-23T01:41:52;20.98;;;12.48;;
45077;SDS011;60508;42.622;25.416;2024-02-23T01:44:40;18.42;;;11.52;;
45077;SDS011;60508;42.622;25.416;2024-02-23T01:47:07;21.75;;;12.93;;
45077;SDS011;60508;42.622;25.416;2024-02-23T01:49:33;17.58;;;11.25;;
45077;SDS011;60508;42.622;25.416;2024-02-23T01:52:21;21.98;;;13.40;;
45077;SDS011;60508;42.622;25.416;2024-02-23T01:54:48;16.17;;;12.23;;
45077;SDS011;60508;42.622;25.416;2024-02-23T01:57:15;22.45;;;12.30;;
45077;SDS011;60508;42.622;25.416;2024-02-23T02:00:01;14.57;;;10.43;;
45077;SDS011;60508;42.622;25.416;2024-02-23T02:04:58;19.73;;;13.48;;
45077;SDS011;60508;42.622;25.416;2024-02-23T02:07:24;20.70;;;13.77;;
45077;SDS011;60508;42.622;25.416;2024-02-23T02:09:51;22.25;;;12.77;;
45077;SDS011;60508;42.622;25.416;2024-02-23T02:12:37;37.20;;;18.90;;
45077;SDS011;60508;42.622;25.416;2024-02-23T02:15:04;36.17;;;17.08;;
45077;SDS011;60508;42.622;25.416;2024-02-23T02:17:31;21.52;;;13.38;;
45077;SDS011;60508;42.622;25.416;2024-02-23T02:19:58;18.83;;;12.75;;
45077;SDS011;60508;42.622;25.416;2024-02-23T02:22:47;22.40;;;13.25;;
45077;SDS011;60508;42.622;25.416;2024-02-23T02:25:14;21.20;;;13.15;;
45077;SDS011;60508;42.622;25.416;2024-02-23T02:27:41;26.08;;;13.63;;
45077;SDS011;60508;42.622;25.416;2024-02-23T02:30:08;26.95;;;14.77;;
45077;SDS011;60508;42.622;25.416;2024-02-23T02:32:35;24.08;;;14.88;;
45077;SDS011;60508;42.622;25.416;2024-02-23T02:35:02;23.35;;;14.20;;
45077;SDS011;60508;42.622;25.416;2024-02-23T02:37:28;24.90;;;13.68;;
45077;SDS011;60508;42.622;25.416;2024-02-23T02:39:54;20.88;;;12.30;;
45077;SDS011;60508;42.622;25.416;2024-02-23T02:42:21;22.60;;;14.13;;
45077;SDS011;60508;42.622;25.416;2024-02-23T02:44:47;20.52;;;13.38;;
45077;SDS011;60508;42.622;25.416;2024-02-23T02:47:34;17.48;;;11.73;;
45077;SDS011;60508;42.622;25.416;2024-02-23T02:50:02;15.05;;;10.68;;
45077;SDS011;60508;42.622;25.416;2024-02-23T02:52:48;17.15;;;11.48;;
45077;SDS011;60508;42.622;25.416;2024-02-23T02:55:15;17.48;;;11.98;;
45077;SDS011;60508;42.622;25.416;2024-02-23T02:58:01;18.48;;;11.35;;
45077;SDS011;60508;42.622;25.416;2024-02-23T03:00:28;19.27;;;12.63;;
45077;SDS011;60508;42.622;25.416;2024-02-23T03:02:54;21.23;;;13.35;;
45077;SDS011;60508;42.622;25.416;2024-02-23T03:05:41;19.08;;;13.10;;
45077;SDS011;60508;42.622;25.416;2024-02-23T03:08:07;20.10;;;13.60;;
45077;SDS011;60508;42.622;25.416;2024-02-23T03:10:33;20.15;;;13.23;;
45077;SDS011;60508;42.622;25.416;2024-02-23T03:13:00;23.25;;;13.38;;
45077;SDS011;60508;42.622;25.416;2024-02-23T03:15:26;19.40;;;12.00;;
45077;SDS011;60508;42.622;25.416;2024-02-23T03:17:53;19.13;;;12.13;;
45077;SDS011;60508;42.622;25.416;2024-02-23T03:20:21;18.70;;;12.50;;
45077;SDS011;60508;42.622;25.416;2024-02-23T03:22:48;18.92;;;12.63;;
45077;SDS011;60508;42.622;25.416;2024-02-23T03:25:34;19.83;;;13.50;;
45077;SDS011;60508;42.622;25.416;2024-02-23T03:28:00;22.40;;;12.88;;
45077;SDS011;60508;42.622;25.416;2024-02-23T03:30:27;18.20;;;12.00;;
45077;SDS011;60508;42.622;25.416;2024-02-23T03:32:53;18.50;;;11.55;;
45077;SDS011;60508;42.622;25.416;2024-02-23T03:35:40;17.77;;;11.35;;
45077;SDS011;60508;42.622;25.416;2024-02-23T03:38:06;17.60;;;11.52;;
45077;SDS011;60508;42.622;25.416;2024-02-23T03:40:32;18.83;;;11.43;;
45077;SDS011;60508;42.622;25.416;2024-02-23T03:42:59;17.17;;;10.45;;
45077;SDS011;60508;42.622;25.416;2024-02-23T03:45:46;18.08;;;11.07;;
45077;SDS011;60508;42.622;25.416;2024-02-23T03:48:12;14.65;;;10.95;;
45077;SDS011;60508;42.622;25.416;2024-02-23T03:50:39;14.88;;;10.80;;
45077;SDS011;60508;42.622;25.416;2024-02-23T03:53:25;19.25;;;13.32;;
45077;SDS011;60508;42.622;25.416;2024-02-23T03:55:51;20.63;;;12.20;;
45077;SDS011;60508;42.622;25.416;2024-02-23T03:58:38;16.65;;;11.20;;
45077;SDS011;60508;42.622;25.416;2024-02-23T04:01:04;23.05;;;14.73;;
45077;SDS011;60508;42.622;25.416;2024-02-23T04:03:30;22.83;;;15.02;;
45077;SDS011;60508;42.622;25.416;2024-02-23T04:06:17;19.95;;;12.77;;
45077;SDS011;60508;42.622;25.416;2024-02-23T04:08:43;23.08;;;13.23;;
45077;SDS011;60508;42.622;25.416;2024-02-23T04:11:12;21.77;;;13.68;;
45077;SDS011;60508;42.622;25.416;2024-02-23T04:13:39;28.52;;;14.15;;
45077;SDS011;60508;42.622;25.416;2024-02-23T04:16:05;22.50;;;12.88;;
45077;SDS011;60508;42.622;25.416;2024-02-23T04:18:32;22.30;;;13.75;;
45077;SDS011;60508;42.622;25.416;2024-02-23T04:21:18;23.05;;;13.70;;
45077;SDS011;60508;42.622;25.416;2024-02-23T04:23:45;30.75;;;16.95;;
45077;SDS011;60508;42.622;25.416;2024-02-23T04:26:12;28.35;;;16.17;;
45077;SDS011;60508;42.622;25.416;2024-02-23T04:28:58;24.42;;;14.73;;
45077;SDS011;60508;42.622;25.416;2024-02-23T04:31:24;25.75;;;15.82;;
45077;SDS011;60508;42.622;25.416;2024-02-23T04:33:52;24.58;;;14.77;;
45077;SDS011;60508;42.622;25.416;2024-02-23T04:36:21;25.05;;;14.93;;
45077;SDS011;60508;42.622;25.416;2024-02-23T04:38:47;24.05;;;13.70;;
45077;SDS011;60508;42.622;25.416;2024-02-23T04:41:14;22.73;;;13.68;;
45077;SDS011;60508;42.622;25.416;2024-02-23T04:43:45;21.60;;;14.45;;
45077;SDS011;60508;42.622;25.416;2024-02-23T04:46:31;20.70;;;13.90;;
45077;SDS011;60508;42.622;25.416;2024-02-23T04:49:01;26.90;;;14.80;;
45077;SDS011;60508;42.622;25.416;2024-02-23T04:51:48;23.55;;;13.80;;
45077;SDS011;60508;42.622;25.416;2024-02-23T04:54:14;19.40;;;12.95;;
45077;SDS011;60508;42.622;25.416;2024-02-23T04:56:41;19.40;;;14.52;;
45077;SDS011;60508;42.622;25.416;2024-02-23T04:59:07;30.33;;;15.32;;
45077;SDS011;60508;42.622;25.416;2024-02-23T05:01:54;23.75;;;15.52;;
45077;SDS011;60508;42.622;25.416;2024-02-23T05:04:21;24.27;;;15.77;;
45077;SDS011;60508;42.622;25.416;2024-02-23T05:06:47;24.00;;;13.25;;
45077;SDS011;60508;42.622;25.416;2024-02-23T05:09:33;25.38;;;14.40;;
45077;SDS011;60508;42.622;25.416;2024-02-23T05:12:01;22.38;;;14.00;;
45077;SDS011;60508;42.622;25.416;2024-02-23T05:14:27;21.10;;;13.70;;
45077;SDS011;60508;42.622;25.416;2024-02-23T05:16:53;38.28;;;18.52;;
45077;SDS011;60508;42.622;25.416;2024-02-23T05:19:20;19.92;;;13.45;;
45077;SDS011;60508;42.622;25.416;2024-02-23T05:21:46;23.02;;;13.65;;
45077;SDS011;60508;42.622;25.416;2024-02-23T05:24:12;22.77;;;13.98;;
45077;SDS011;60508;42.622;25.416;2024-02-23T05:26:59;19.30;;;13.02;;
45077;SDS011;60508;42.622;25.416;2024-02-23T05:29:28;29.05;;;13.82;;
45077;SDS011;60508;42.622;25.416;2024-02-23T05:31:54;22.15;;;13.15;;
45077;SDS011;60508;42.622;25.416;2024-02-23T05:34:21;19.25;;;12.00;;
45077;SDS011;60508;42.622;25.416;2024-02-23T05:37:07;24.23;;;13.00;;
45077;SDS011;60508;42.622;25.416;2024-02-23T05:39:34;19.23;;;13.35;;
45077;SDS011;60508;42.622;25.416;2024-02-23T05:42:20;24.00;;;13.43;;
45077;SDS011;60508;42.622;25.416;2024-02-23T05:44:47;24.05;;;14.82;;
45077;SDS011;60508;42.622;25.416;2024-02-23T05:47:14;23.13;;;13.43;;
45077;SDS011;60508;42.622;25.416;2024-02-23T05:50:01;17.85;;;12.60;;
45077;SDS011;60508;42.622;25.416;2024-02-23T05:52:30;19.88;;;13.60;;
45077;SDS011;60508;42.622;25.416;2024-02-23T05:54:57;19.37;;;12.97;;
45077;SDS011;60508;42.622;25.416;2024-02-23T05:57:45;16.15;;;10.98;;
45077;SDS011;60508;42.622;25.416;2024-02-23T06:00:12;19.45;;;11.98;;
45077;SDS011;60508;42.622;25.416;2024-02-23T06:02:40;17.60;;;12.15;;
45077;SDS011;60508;42.622;25.416;2024-02-23T06:05:07;18.48;;;11.52;;
45077;SDS011;60508;42.622;25.416;2024-02-23T06:07:53;19.75;;;11.77;;
45077;SDS011;60508;42.622;25.416;2024-02-23T06:10:20;21.17;;;12.23;;
45077;SDS011;60508;42.622;25.416;2024-02-23T06:12:47;27.00;;;14.73;;
45077;SDS011;60508;42.622;25.416;2024-02-23T06:15:13;17.75;;;12.95;;
45077;SDS011;60508;42.622;25.416;2024-02-23T06:17:39;27.35;;;15.25;;
45077;SDS011;60508;42.622;25.416;2024-02-23T06:20:26;28.70;;;15.65;;
45077;SDS011;60508;42.622;25.416;2024-02-23T06:22:52;34.53;;;17.05;;
45077;SDS011;60508;42.622;25.416;2024-02-23T06:25:19;25.27;;;15.48;;
45077;SDS011;60508;42.622;25.416;2024-02-23T06:28:05;34.28;;;19.50;;
45077;SDS011;60508;42.622;25.416;2024-02-23T06:30:32;30.98;;;18.55;;
45077;SDS011;60508;42.622;25.416;2024-02-23T06:33:19;28.02;;;16.55;;
45077;SDS011;60508;42.622;25.416;2024-02-23T06:35:45;28.27;;;16.65;;
45077;SDS011;60508;42.622;25.416;2024-02-23T06:38:12;28.70;;;14.77;;
45077;SDS011;60508;42.622;25.416;2024-02-23T06:40:38;24.40;;;14.00;;
45077;SDS011;60508;42.622;25.416;2024-02-23T06:43:25;19.38;;;11.77;;
45077;SDS011;60508;42.622;25.416;2024-02-23T06:45:52;17.77;;;12.25;;
45077;SDS011;60508;42.622;25.416;2024-02-23T06:48:38;20.42;;;14.27;;
45077;SDS011;60508;42.622;25.416;2024-02-23T06:51:05;18.45;;;12.20;;
45077;SDS011;60508;42.622;25.416;2024-02-23T06:53:35;23.38;;;12.40;;
45077;SDS011;60508;42.622;25.416;2024-02-23T06:56:21;23.67;;;13.70;;
45077;SDS011;60508;42.622;25.416;2024-02-23T06:58:48;22.08;;;13.77;;
45077;SDS011;60508;42.622;25.416;2024-02-23T07:01:14;22.55;;;13.57;;
45077;SDS011;60508;42.622;25.416;2024-02-23T07:03:40;27.95;;;16.08;;
45077;SDS011;60508;42.622;25.416;2024-02-23T07:06:09;19.63;;;13.07;;
45077;SDS011;60508;42.622;25.416;2024-02-23T07:11:24;18.35;;;13.20;;
45077;SDS011;60508;42.622;25.416;2024-02-23T07:13:51;22.67;;;13.98;;
45077;SDS011;60508;42.622;25.416;2024-02-23T07:16:18;17.63;;;13.32;;
45077;SDS011;60508;42.622;25.416;2024-02-23T07:18:49;22.52;;;14.25;;
45077;SDS011;60508;42.622;25.416;2024-02-23T07:21:19;21.75;;;13.80;;
45077;SDS011;60508;42.622;25.416;2024-02-23T07:23:46;20.77;;;12.73;;
45077;SDS011;60508;42.622;25.416;2024-02-23T07:26:12;23.02;;;14.63;;
45077;SDS011;60508;42.622;25.416;2024-02-23T07:28:58;20.85;;;13.38;;
45077;SDS011;60508;42.622;25.416;2024-02-23T07:31:25;19.23;;;13.90;;
45077;SDS011;60508;42.622;25.416;2024-02-23T07:33:52;19.58;;;14.20;;
45077;SDS011;60508;42.622;25.416;2024-02-23T07:36:18;22.15;;;14.77;;
45077;SDS011;60508;42.622;25.416;2024-02-23T07:38:44;21.42;;;14.20;;
45077;SDS011;60508;42.622;25.416;2024-02-23T07:41:31;20.00;;;13.98;;
45077;SDS011;60508;42.622;25.416;2024-02-23T07:43:57;21.48;;;13.32;;
45077;SDS011;60508;42.622;25.416;2024-02-23T07:46:24;20.38;;;13.00;;
45077;SDS011;60508;42.622;25.416;2024-02-23T07:48:51;18.77;;;13.05;;
45077;SDS011;60508;42.622;25.416;2024-02-23T07:51:37;27.25;;;16.40;;
45077;SDS011;60508;42.622;25.416;2024-02-23T07:54:04;26.27;;;15.60;;
45077;SDS011;60508;42.622;25.416;2024-02-23T07:56:51;24.25;;;14.98;;
45077;SDS011;60508;42.622;25.416;2024-02-23T07:59:17;21.23;;;15.48;;
45077;SDS011;60508;42.622;25.416;2024-02-23T08:02:04;22.35;;;14.85;;
45077;SDS011;60508;42.622;25.416;2024-02-23T08:04:34;23.63;;;16.27;;
45077;SDS011;60508;42.622;25.416;2024-02-23T08:07:01;20.58;;;14.98;;
45077;SDS011;60508;42.622;25.416;2024-02-23T08:09:27;21.67;;;15.88;;
45077;SDS011;60508;42.622;25.416;2024-02-23T08:11:53;24.42;;;15.68;;
45077;SDS011;60508;42.622;25.416;2024-02-23T08:14:40;23.38;;;16.15;;
45077;SDS011;60508;42.622;25.416;2024-02-23T08:17:08;20.77;;;15.20;;
45077;SDS011;60508;42.622;25.416;2024-02-23T08:19:34;20.15;;;14.93;;
45077;SDS011;60508;42.622;25.416;2024-02-23T08:22:00;20.70;;;14.50;;
45077;SDS011;60508;42.622;25.416;2024-02-23T08:24:47;20.27;;;15.10;;
45077;SDS011;60508;42.622;25.416;2024-02-23T08:27:13;24.15;;;15.50;;
45077;SDS011;60508;42.622;25.416;2024-02-23T08:29:39;21.42;;;14.73;;
45077;SDS011;60508;42.622;25.416;2024-02-23T08:32:27;19.55;;;14.32;;
45077;SDS011;60508;42.622;25.416;2024-02-23T08:34:53;21.40;;;14.73;;
45077;SDS011;60508;42.622;25.416;2024-02-23T08:37:45;19.40;;;14.35;;
45077;SDS011;60508;42.622;25.416;2024-02-23T08:40:12;19.40;;;13.50;;
45077;SDS011;60508;42.622;25.416;2024-02-23T08:42:39;18.77;;;14.18;;
45077;SDS011;60508;42.622;25.416;2024-02-23T08:45:29;23.27;;;13.98;;
45077;SDS011;60508;42.622;25.416;2024-02-23T08:48:00;19.48;;;12.93;;
45077;SDS011;60508;42.622;25.416;2024-02-23T08:50:26;21.20;;;13.95;;
45077;SDS011;60508;42.622;25.416;2024-02-23T08:52:52;19.65;;;13.95;;
45077;SDS011;60508;42.622;25.416;2024-02-23T08:55:19;18.58;;;13.43;;
45077;SDS011;60508;42.622;25.416;2024-02-23T08:57:45;15.63;;;11.85;;
45077;SDS011;60508;42.622;25.416;2024-02-23T09:00:32;17.08;;;11.52;;
45077;SDS011;60508;42.622;25.416;2024-02-23T09:02:58;18.30;;;12.57;;
45077;SDS011;60508;42.622;25.416;2024-02-23T09:05:45;16.70;;;11.10;;
45077;SDS011;60508;42.622;25.416;2024-02-23T09:08:13;15.00;;;11.40;;
45077;SDS011;60508;42.622;25.416;2024-02-23T09:10:39;15.35;;;11.32;;
45077;SDS011;60508;42.622;25.416;2024-02-23T09:13:06;13.68;;;11.20;;
45077;SDS011;60508;42.622;25.416;2024-02-23T09:15:32;14.55;;;9.63;;
45077;SDS011;60508;42.622;25.416;2024-02-23T09:17:58;9.95;;;8.15;;
45077;SDS011;60508;42.622;25.416;2024-02-23T09:20:45;15.25;;;10.68;;
45077;SDS011;60508;42.622;25.416;2024-02-23T09:23:11;11.95;;;9.85;;
45077;SDS011;60508;42.622;25.416;2024-02-23T09:25:38;14.88;;;10.13;;
45077;SDS011;60508;42.622;25.416;2024-02-23T09:28:05;11.77;;;9.35;;
45077;SDS011;60508;42.622;25.416;2024-02-23T09:30:31;10.35;;;8.68;;
45077;SDS011;60508;42.622;25.416;2024-02-23T09:33:17;13.25;;;7.95;;
45077;SDS011;60508;42.622;25.416;2024-02-23T09:35:44;17.17;;;8.88;;
45077;SDS011;60508;42.622;25.416;2024-02-23T09:38:10;9.85;;;8.43;;
45077;SDS011;60508;42.622;25.416;2024-02-23T09:40:57;10.27;;;8.40;;
45077;SDS011;60508;42.622;25.416;2024-02-23T09:43:24;9.30;;;7.97;;
45077;SDS011;60508;42.622;25.416;2024-02-23T09:45:54;10.50;;;8.10;;
45077;SDS011;60508;42.622;25.416;2024-02-23T09:48:22;7.93;;;6.30;;
45077;SDS011;60508;42.622;25.416;2024-02-23T09:51:12;7.40;;;5.88;;
45077;SDS011;60508;42.622;25.416;2024-02-23T09:53:40;7.07;;;5.63;;
45077;SDS011;60508;42.622;25.416;2024-02-23T09:56:27;6.07;;;5.38;;
45077;SDS011;60508;42.622;25.416;2024-02-23T09:58:59;5.18;;;4.68;;
45077;SDS011;60508;42.622;25.416;2024-02-23T10:01:29;5.53;;;4.75;;
45077;SDS011;60508;42.622;25.416;2024-02-23T10:03:57;4.82;;;4.25;;
45077;SDS011;60508;42.622;25.416;2024-02-23T10:06:44;5.18;;;3.95;;
45077;SDS011;60508;42.622;25.416;2024-02-23T10:09:11;9.25;;;5.10;;
45077;SDS011;60508;42.622;25.416;2024-02-23T10:11:38;4.88;;;4.18;;
45077;SDS011;60508;42.622;25.416;2024-02-23T10:14:25;4.45;;;4.07;;
45077;SDS011;60508;42.622;25.416;2024-02-23T10:16:51;5.13;;;4.63;;
45077;SDS011;60508;42.622;25.416;2024-02-23T10:19:19;5.05;;;4.43;;
45077;SDS011;60508;42.622;25.416;2024-02-23T10:21:46;4.63;;;4.18;;
45077;SDS011;60508;42.622;25.416;2024-02-23T10:24:33;5.65;;;5.10;;
45077;SDS011;60508;42.622;25.416;2024-02-23T10:27:00;4.93;;;4.32;;
45077;SDS011;60508;42.622;25.416;2024-02-23T10:29:27;4.93;;;4.43;;
45077;SDS011;60508;42.622;25.416;2024-02-23T10:31:53;17.15;;;5.45;;
45077;SDS011;60508;42.622;25.416;2024-02-23T10:34:27;5.00;;;4.40;;
45077;SDS011;60508;42.622;25.416;2024-02-23T10:36:59;5.85;;;4.85;;
45077;SDS011;60508;42.622;25.416;2024-02-23T10:39:25;5.75;;;4.55;;
45077;SDS011;60508;42.622;25.416;2024-02-23T10:42:15;5.18;;;4.68;;
45077;SDS011;60508;42.622;25.416;2024-02-23T10:44:48;6.10;;;4.22;;
45077;SDS011;60508;42.622;25.416;2024-02-23T10:47:36;4.05;;;3.75;;
45077;SDS011;60508;42.622;25.416;2024-02-23T10:50:03;5.05;;;4.55;;
45077;SDS011;60508;42.622;25.416;2024-02-23T10:52:30;4.32;;;3.92;;
45077;SDS011;60508;42.622;25.416;2024-02-23T10:55:18;4.85;;;4.35;;
45077;SDS011;60508;42.622;25.416;2024-02-23T10:57:44;4.45;;;4.05;;
45077;SDS011;60508;42.622;25.416;2024-02-23T11:00:14;5.18;;;4.68;;
45077;SDS011;60508;42.622;25.416;2024-02-23T11:02:50;4.45;;;4.03;;
45077;SDS011;60508;42.622;25.416;2024-02-23T11:05:18;4.50;;;4.05;;
45077;SDS011;60508;42.622;25.416;2024-02-23T11:07:48;5.30;;;4.57;;
45077;SDS011;60508;42.622;25.416;2024-02-23T11:10:43;6.85;;;5.00;;
45077;SDS011;60508;42.622;25.416;2024-02-23T11:13:15;5.68;;;5.05;;
45077;SDS011;60508;42.622;25.416;2024-02-23T11:15:41;5.20;;;4.70;;
45077;SDS011;60508;42.622;25.416;2024-02-23T11:18:21;7.00;;;4.20;;
45077;SDS011;60508;42.622;25.416;2024-02-23T11:21:11;27.33;;;5.85;;
45077;SDS011;60508;42.622;25.416;2024-02-23T11:23:41;5.18;;;4.50;;
45077;SDS011;60508;42.622;25.416;2024-02-23T11:26:28;6.22;;;4.90;;
45077;SDS011;60508;42.622;25.416;2024-02-23T11:28:55;6.85;;;5.50;;
45077;SDS011;60508;42.622;25.416;2024-02-23T11:31:25;6.00;;;4.25;;
45077;SDS011;60508;42.622;25.416;2024-02-23T11:34:21;5.50;;;4.78;;
45077;SDS011;60508;42.622;25.416;2024-02-23T11:36:53;4.45;;;4.05;;
45077;SDS011;60508;42.622;25.416;2024-02-23T11:39:19;4.95;;;4.45;;
45077;SDS011;60508;42.622;25.416;2024-02-23T11:41:50;5.72;;;5.22;;
45077;SDS011;60508;42.622;25.416;2024-02-23T11:44:36;9.23;;;5.85;;
45077;SDS011;60508;42.622;25.416;2024-02-23T11:47:03;3.80;;;3.50;;
45077;SDS011;60508;42.622;25.416;2024-02-23T11:49:49;3.58;;;3.28;;
45077;SDS011;60508;42.622;25.416;2024-02-23T11:52:16;4.20;;;3.78;;
45077;SDS011;60508;42.622;25.416;2024-02-23T11:54:43;4.43;;;4.03;;
45077;SDS011;60508;42.622;25.416;2024-02-23T11:57:31;4.57;;;4.18;;
45077;SDS011;60508;42.622;25.416;2024-02-23T12:00:00;4.78;;;3.85;;
45077;SDS011;60508;42.622;25.416;2024-02-23T12:02:28;6.05;;;3.50;;
45077;SDS011;60508;42.622;25.416;2024-02-23T12:04:55;4.78;;;4.28;;
45077;SDS011;60508;42.622;25.416;2024-02-23T12:07:23;4.18;;;3.75;;
45077;SDS011;60508;42.622;25.416;2024-02-23T12:09:52;4.18;;;3.80;;
45077;SDS011;60508;42.622;25.416;2024-02-23T12:12:18;4.78;;;3.72;;
45077;SDS011;60508;42.622;25.416;2024-02-23T12:15:05;4.82;;;3.95;;
45077;SDS011;60508;42.622;25.416;2024-02-23T12:17:35;5.95;;;4.22;;
45077;SDS011;60508;42.622;25.416;2024-02-23T12:20:03;4.03;;;3.63;;
45077;SDS011;60508;42.622;25.416;2024-02-23T12:22:30;7.97;;;3.60;;
45077;SDS011;60508;42.622;25.416;2024-02-23T12:24:57;4.22;;;3.83;;
45077;SDS011;60508;42.622;25.416;2024-02-23T12:27:44;5.53;;;3.70;;
45077;SDS011;60508;42.622;25.416;2024-02-23T12:30:16;7.65;;;4.22;;
45077;SDS011;60508;42.622;25.416;2024-02-23T12:32:43;6.97;;;4.20;;
45077;SDS011;60508;42.622;25.416;2024-02-23T12:35:12;5.07;;;3.97;;
45077;SDS011;60508;42.622;25.416;2024-02-23T12:37:40;5.68;;;4.78;;
45077;SDS011;60508;42.622;25.416;2024-02-23T12:40:28;4.93;;;3.80;;
45077;SDS011;60508;42.622;25.416;2024-02-23T12:42:55;3.28;;;3.00;;
45077;SDS011;60508;42.622;25.416;2024-02-23T12:45:21;4.03;;;3.63;;
45077;SDS011;60508;42.622;25.416;2024-02-23T12:47:48;3.85;;;3.25;;
45077;SDS011;60508;42.622;25.416;2024-02-23T12:50:14;5.43;;;3.22;;
45077;SDS011;60508;42.622;25.416;2024-02-23T12:53:00;3.47;;;3.17;;
45077;SDS011;60508;42.622;25.416;2024-02-23T12:55:27;3.85;;;3.28;;
45077;SDS011;60508;42.622;25.416;2024-02-23T12:57:53;5.60;;;3.47;;
45077;SDS011;60508;42.622;25.416;2024-02-23T13:00:40;4.40;;;3.53;;
45077;SDS011;60508;42.622;25.416;2024-02-23T13:03:06;3.67;;;3.38;;
45077;SDS011;60508;42.622;25.416;2024-02-23T13:05:32;4.40;;;4.00;;
45077;SDS011;60508;42.622;25.416;2024-02-23T13:07:59;5.20;;;3.67;;
45077;SDS011;60508;42.622;25.416;2024-02-23T13:10:25;5.93;;;3.65;;
45077;SDS011;60508;42.622;25.416;2024-02-23T13:12:52;9.95;;;5.55;;
45077;SDS011;60508;42.622;25.416;2024-02-23T13:15:18;4.65;;;3.83;;
45077;SDS011;60508;42.622;25.416;2024-02-23T13:17:44;4.93;;;3.85;;
45077;SDS011;60508;42.622;25.416;2024-02-23T13:20:11;4.75;;;3.70;;
45077;SDS011;60508;42.622;25.416;2024-02-23T13:22:38;5.10;;;3.65;;
45077;SDS011;60508;42.622;25.416;2024-02-23T13:25:05;2.83;;;2.63;;
45077;SDS011;60508;42.622;25.416;2024-02-23T13:27:32;3.45;;;3.15;;
45077;SDS011;60508;42.622;25.416;2024-02-23T13:30:18;6.85;;;4.18;;
45077;SDS011;60508;42.622;25.416;2024-02-23T13:32:45;3.60;;;3.30;;
45077;SDS011;60508;42.622;25.416;2024-02-23T13:35:11;4.30;;;3.50;;
45077;SDS011;60508;42.622;25.416;2024-02-23T13:37:40;5.93;;;3.50;;
45077;SDS011;60508;42.622;25.416;2024-02-23T13:40:29;4.05;;;3.17;;
45077;SDS011;60508;42.622;25.416;2024-02-23T13:42:56;13.55;;;4.00;;
45077;SDS011;60508;42.622;25.416;2024-02-23T13:45:23;3.65;;;3.35;;
45077;SDS011;60508;42.622;25.416;2024-02-23T13:47:57;4.38;;;3.55;;
45077;SDS011;60508;42.622;25.416;2024-02-23T13:50:28;3.50;;;3.20;;
45077;SDS011;60508;42.622;25.416;2024-02-23T13:52:55;4.35;;;2.97;;
45077;SDS011;60508;42.622;25.416;2024-02-23T13:55:41;6.68;;;3.47;;
45077;SDS011;60508;42.622;25.416;2024-02-23T13:58:13;5.70;;;3.42;;
45077;SDS011;60508;42.622;25.416;2024-02-23T14:01:03;4.05;;;3.55;;
45077;SDS011;60508;42.622;25.416;2024-02-23T14:03:30;6.15;;;3.15;;
45077;SDS011;60508;42.622;25.416;2024-02-23T14:06:16;5.65;;;3.08;;
45077;SDS011;60508;42.622;25.416;2024-02-23T14:08:43;6.28;;;3.35;;
45077;SDS011;60508;42.622;25.416;2024-02-23T14:11:10;3.80;;;2.70;;
45077;SDS011;60508;42.622;25.416;2024-02-23T14:13:36;4.20;;;2.33;;
45077;SDS011;60508;42.622;25.416;2024-02-23T14:16:03;2.70;;;2.50;;
45077;SDS011;60508;42.622;25.416;2024-02-23T14:18:31;7.53;;;3.05;;
45077;SDS011;60508;42.622;25.416;2024-02-23T14:21:22;4.75;;;3.13;;
45077;SDS011;60508;42.622;25.416;2024-02-23T14:23:51;3.50;;;2.65;;
45077;SDS011;60508;42.622;25.416;2024-02-23T14:26:37;2.70;;;2.50;;
45077;SDS011;60508;42.622;25.416;2024-02-23T14:29:03;3.17;;;2.88;;
45077;SDS011;60508;42.622;25.416;2024-02-23T14:31:30;4.40;;;3.45;;
45077;SDS011;60508;42.622;25.416;2024-02-23T14:33:56;2.83;;;2.63;;
45077;SDS011;60508;42.622;25.416;2024-02-23T14:36:22;2.63;;;2.42;;
45077;SDS011;60508;42.622;25.416;2024-02-23T14:38:50;3.28;;;2.65;;
45077;SDS011;60508;42.622;25.416;2024-02-23T14:41:16;2.92;;;2.60;;
45077;SDS011;60508;42.622;25.416;2024-02-23T14:43:43;3.25;;;2.83;;
45077;SDS011;60508;42.622;25.416;2024-02-23T14:46:09;6.22;;;5.10;;
45077;SDS011;60508;42.622;25.416;2024-02-23T14:48:36;3.17;;;2.88;;
45077;SDS011;60508;42.622;25.416;2024-02-23T14:51:02;5.13;;;3.40;;